sensor_id;sensor_type;location;lat;lon;timestamp;P1;durP1;ratioP1;P2;durP2;ratioP2
48596;SDS011;34382;43.160;24.148;2022-10-31T00:00:20;15.32;;;5.80;;
48596;SDS011;34382;43.160;24.148;2022-10-31T00:01:53;11.07;;;5.50;;
48596;SDS011;34382;43.160;24.148;2022-10-31T00:03:25;12.60;;;5.93;;
48596;SDS011;34382;43.160;24.148;2022-10-31T00:04:57;12.25;;;5.22;;
48596;SDS011;34382;43.160;24.148;2022-10-31T00:06:30;22.27;;;5.93;;
48596;SDS011;34382;43.160;24.148;2022-10-31T00:08:02;11.40;;;5.78;;
48596;SDS011;34382;43.160;24.148;2022-10-31T00:09:34;10.45;;;5.40;;
48596;SDS011;34382;43.160;24.148;2022-10-31T00:11:09;11.82;;;5.45;;
48596;SDS011;34382;43.160;24.148;2022-10-31T00:12:41;10.43;;;5.15;;
48596;SDS011;34382;43.160;24.148;2022-10-31T00:14:13;11.40;;;5.50;;
48596;SDS011;34382;43.160;24.148;2022-10-31T00:17:20;9.23;;;4.82;;
48596;SDS011;34382;43.160;24.148;2022-10-31T00:18:53;10.00;;;4.93;;
48596;SDS011;34382;43.160;24.148;2022-10-31T00:20:29;11.30;;;5.18;;
48596;SDS011;34382;43.160;24.148;2022-10-31T00:22:01;11.30;;;5.05;;
48596;SDS011;34382;43.160;24.148;2022-10-31T00:23:33;12.07;;;5.25;;
48596;SDS011;34382;43.160;24.148;2022-10-31T00:25:05;11.50;;;5.25;;
48596;SDS011;34382;43.160;24.148;2022-10-31T00:31:35;10.55;;;4.35;;
48596;SDS011;34382;43.160;24.148;2022-10-31T00:33:07;10.73;;;5.22;;
48596;SDS011;34382;43.160;24.148;2022-10-31T00:34:39;10.77;;;4.55;;
48596;SDS011;34382;43.160;24.148;2022-10-31T00:36:12;10.98;;;4.90;;
48596;SDS011;34382;43.160;24.148;2022-10-31T00:37:45;9.73;;;4.63;;
48596;SDS011;34382;43.160;24.148;2022-10-31T00:39:17;10.73;;;5.22;;
48596;SDS011;34382;43.160;24.148;2022-10-31T00:40:49;10.45;;;4.80;;
48596;SDS011;34382;43.160;24.148;2022-10-31T00:42:21;10.40;;;5.13;;
48596;SDS011;34382;43.160;24.148;2022-10-31T00:43:53;13.93;;;5.13;;
48596;SDS011;34382;43.160;24.148;2022-10-31T00:45:25;11.15;;;5.40;;
48596;SDS011;34382;43.160;24.148;2022-10-31T00:46:57;9.98;;;5.15;;
48596;SDS011;34382;43.160;24.148;2022-10-31T00:48:29;13.35;;;4.68;;
48596;SDS011;34382;43.160;24.148;2022-10-31T00:50:02;11.32;;;5.03;;
48596;SDS011;34382;43.160;24.148;2022-10-31T00:51:35;13.88;;;4.65;;
48596;SDS011;34382;43.160;24.148;2022-10-31T00:53:07;11.60;;;4.88;;
48596;SDS011;34382;43.160;24.148;2022-10-31T00:54:39;11.95;;;5.35;;
48596;SDS011;34382;43.160;24.148;2022-10-31T00:56:11;10.50;;;5.22;;
48596;SDS011;34382;43.160;24.148;2022-10-31T00:57:45;12.57;;;5.20;;
48596;SDS011;34382;43.160;24.148;2022-10-31T00:59:18;9.73;;;5.07;;
48596;SDS011;34382;43.160;24.148;2022-10-31T01:00:50;12.70;;;4.90;;
48596;SDS011;34382;43.160;24.148;2022-10-31T01:02:26;11.15;;;4.47;;
48596;SDS011;34382;43.160;24.148;2022-10-31T01:03:59;11.10;;;4.70;;
48596;SDS011;34382;43.160;24.148;2022-10-31T01:05:31;13.90;;;5.00;;
48596;SDS011;34382;43.160;24.148;2022-10-31T01:07:03;11.02;;;4.72;;
48596;SDS011;34382;43.160;24.148;2022-10-31T01:08:35;9.95;;;4.90;;
48596;SDS011;34382;43.160;24.148;2022-10-31T01:10:09;10.23;;;4.45;;
48596;SDS011;34382;43.160;24.148;2022-10-31T01:11:42;9.27;;;5.07;;
48596;SDS011;34382;43.160;24.148;2022-10-31T01:13:14;9.65;;;4.32;;
48596;SDS011;34382;43.160;24.148;2022-10-31T01:14:46;10.15;;;4.47;;
48596;SDS011;34382;43.160;24.148;2022-10-31T01:16:19;9.30;;;4.43;;
48596;SDS011;34382;43.160;24.148;2022-10-31T01:17:52;11.68;;;4.75;;
48596;SDS011;34382;43.160;24.148;2022-10-31T01:19:25;11.80;;;5.00;;
48596;SDS011;34382;43.160;24.148;2022-10-31T01:21:00;11.43;;;5.05;;
48596;SDS011;34382;43.160;24.148;2022-10-31T01:22:35;12.80;;;4.97;;
48596;SDS011;34382;43.160;24.148;2022-10-31T01:24:07;10.05;;;4.97;;
48596;SDS011;34382;43.160;24.148;2022-10-31T01:25:39;9.45;;;4.80;;
48596;SDS011;34382;43.160;24.148;2022-10-31T01:27:13;9.20;;;4.72;;
48596;SDS011;34382;43.160;24.148;2022-10-31T01:30:47;11.35;;;5.20;;
48596;SDS011;34382;43.160;24.148;2022-10-31T01:32:19;11.77;;;5.25;;
48596;SDS011;34382;43.160;24.148;2022-10-31T01:33:51;12.20;;;5.13;;
48596;SDS011;34382;43.160;24.148;2022-10-31T01:35:23;10.98;;;5.20;;
48596;SDS011;34382;43.160;24.148;2022-10-31T01:36:55;11.10;;;5.18;;
48596;SDS011;34382;43.160;24.148;2022-10-31T01:38:27;14.70;;;5.68;;
48596;SDS011;34382;43.160;24.148;2022-10-31T01:39:59;9.75;;;5.07;;
48596;SDS011;34382;43.160;24.148;2022-10-31T01:41:33;11.48;;;5.45;;
48596;SDS011;34382;43.160;24.148;2022-10-31T01:43:09;12.77;;;5.40;;
48596;SDS011;34382;43.160;24.148;2022-10-31T01:46:21;12.60;;;5.85;;
48596;SDS011;34382;43.160;24.148;2022-10-31T01:47:57;12.75;;;5.50;;
48596;SDS011;34382;43.160;24.148;2022-10-31T01:51:09;15.00;;;5.10;;
48596;SDS011;34382;43.160;24.148;2022-10-31T01:52:44;12.90;;;5.20;;
48596;SDS011;34382;43.160;24.148;2022-10-31T01:54:19;13.02;;;5.57;;
48596;SDS011;34382;43.160;24.148;2022-10-31T01:55:53;12.35;;;5.15;;
48596;SDS011;34382;43.160;24.148;2022-10-31T01:57:25;9.63;;;4.60;;
48596;SDS011;34382;43.160;24.148;2022-10-31T01:58:57;12.15;;;5.18;;
48596;SDS011;34382;43.160;24.148;2022-10-31T02:00:32;11.40;;;4.97;;
48596;SDS011;34382;43.160;24.148;2022-10-31T02:02:04;12.63;;;4.95;;
48596;SDS011;34382;43.160;24.148;2022-10-31T02:03:36;8.97;;;4.37;;
48596;SDS011;34382;43.160;24.148;2022-10-31T02:05:22;12.23;;;5.00;;
48596;SDS011;34382;43.160;24.148;2022-10-31T02:06:58;10.68;;;4.50;;
48596;SDS011;34382;43.160;24.148;2022-10-31T02:08:33;11.93;;;5.28;;
48596;SDS011;34382;43.160;24.148;2022-10-31T02:10:06;10.70;;;4.82;;
48596;SDS011;34382;43.160;24.148;2022-10-31T02:11:39;9.57;;;4.47;;
48596;SDS011;34382;43.160;24.148;2022-10-31T02:13:12;15.00;;;5.13;;
48596;SDS011;34382;43.160;24.148;2022-10-31T02:14:44;10.80;;;5.07;;
48596;SDS011;34382;43.160;24.148;2022-10-31T02:16:16;10.48;;;5.10;;
48596;SDS011;34382;43.160;24.148;2022-10-31T02:17:49;16.07;;;6.13;;
48596;SDS011;34382;43.160;24.148;2022-10-31T02:19:40;14.27;;;5.20;;
48596;SDS011;34382;43.160;24.148;2022-10-31T02:21:19;9.85;;;4.70;;
48596;SDS011;34382;43.160;24.148;2022-10-31T02:25:20;12.65;;;5.00;;
48596;SDS011;34382;43.160;24.148;2022-10-31T02:27:07;9.98;;;5.13;;
48596;SDS011;34382;43.160;24.148;2022-10-31T02:28:59;12.65;;;5.18;;
48596;SDS011;34382;43.160;24.148;2022-10-31T02:33:56;12.52;;;4.82;;
48596;SDS011;34382;43.160;24.148;2022-10-31T02:39:35;15.10;;;5.47;;
48596;SDS011;34382;43.160;24.148;2022-10-31T02:43:13;10.68;;;5.18;;
48596;SDS011;34382;43.160;24.148;2022-10-31T02:48:43;9.13;;;4.87;;
48596;SDS011;34382;43.160;24.148;2022-10-31T02:50:23;10.10;;;5.30;;
48596;SDS011;34382;43.160;24.148;2022-10-31T02:51:58;10.75;;;4.90;;
48596;SDS011;34382;43.160;24.148;2022-10-31T02:53:34;12.50;;;5.05;;
48596;SDS011;34382;43.160;24.148;2022-10-31T02:56:56;12.10;;;5.05;;
48596;SDS011;34382;43.160;24.148;2022-10-31T02:58:31;10.52;;;4.82;;
48596;SDS011;34382;43.160;24.148;2022-10-31T03:00:07;11.93;;;4.75;;
48596;SDS011;34382;43.160;24.148;2022-10-31T03:02:04;13.10;;;5.35;;
48596;SDS011;34382;43.160;24.148;2022-10-31T03:05:22;11.52;;;4.88;;
48596;SDS011;34382;43.160;24.148;2022-10-31T03:07:23;12.70;;;5.30;;
48596;SDS011;34382;43.160;24.148;2022-10-31T03:10:59;12.98;;;5.22;;
48596;SDS011;34382;43.160;24.148;2022-10-31T03:12:40;12.27;;;5.15;;
48596;SDS011;34382;43.160;24.148;2022-10-31T03:14:23;11.73;;;5.05;;
48596;SDS011;34382;43.160;24.148;2022-10-31T03:16:09;14.23;;;6.53;;
48596;SDS011;34382;43.160;24.148;2022-10-31T03:19:39;11.13;;;4.63;;
48596;SDS011;34382;43.160;24.148;2022-10-31T03:21:22;12.75;;;4.97;;
48596;SDS011;34382;43.160;24.148;2022-10-31T03:22:57;11.82;;;4.70;;
48596;SDS011;34382;43.160;24.148;2022-10-31T03:24:34;12.82;;;5.18;;
48596;SDS011;34382;43.160;24.148;2022-10-31T03:26:09;10.63;;;4.55;;
48596;SDS011;34382;43.160;24.148;2022-10-31T03:27:42;8.80;;;4.90;;
48596;SDS011;34382;43.160;24.148;2022-10-31T03:29:16;12.15;;;5.07;;
48596;SDS011;34382;43.160;24.148;2022-10-31T03:30:51;11.18;;;4.85;;
48596;SDS011;34382;43.160;24.148;2022-10-31T03:32:34;11.05;;;4.90;;
48596;SDS011;34382;43.160;24.148;2022-10-31T03:34:10;10.48;;;4.95;;
48596;SDS011;34382;43.160;24.148;2022-10-31T03:35:44;11.90;;;4.50;;
48596;SDS011;34382;43.160;24.148;2022-10-31T03:37:19;10.35;;;4.82;;
48596;SDS011;34382;43.160;24.148;2022-10-31T03:40:24;9.38;;;4.55;;
48596;SDS011;34382;43.160;24.148;2022-10-31T03:42:03;12.70;;;4.68;;
48596;SDS011;34382;43.160;24.148;2022-10-31T03:43:39;12.52;;;5.00;;
48596;SDS011;34382;43.160;24.148;2022-10-31T03:45:15;9.88;;;4.68;;
48596;SDS011;34382;43.160;24.148;2022-10-31T03:46:51;12.38;;;5.15;;
48596;SDS011;34382;43.160;24.148;2022-10-31T03:48:23;10.95;;;4.80;;
48596;SDS011;34382;43.160;24.148;2022-10-31T03:49:56;11.75;;;6.65;;
48596;SDS011;34382;43.160;24.148;2022-10-31T03:53:13;12.10;;;6.15;;
48596;SDS011;34382;43.160;24.148;2022-10-31T03:54:53;10.65;;;5.03;;
48596;SDS011;34382;43.160;24.148;2022-10-31T03:56:29;12.30;;;6.32;;
48596;SDS011;34382;43.160;24.148;2022-10-31T03:58:21;12.40;;;5.32;;
48596;SDS011;34382;43.160;24.148;2022-10-31T04:00:31;9.13;;;4.78;;
48596;SDS011;34382;43.160;24.148;2022-10-31T04:01:58;10.10;;;4.43;;
48596;SDS011;34382;43.160;24.148;2022-10-31T04:03:34;10.32;;;4.55;;
48596;SDS011;34382;43.160;24.148;2022-10-31T04:05:08;10.38;;;5.00;;
48596;SDS011;34382;43.160;24.148;2022-10-31T04:06:41;13.02;;;5.13;;
48596;SDS011;34382;43.160;24.148;2022-10-31T04:09:51;11.18;;;5.25;;
48596;SDS011;34382;43.160;24.148;2022-10-31T04:11:27;12.75;;;5.28;;
48596;SDS011;34382;43.160;24.148;2022-10-31T04:13:02;9.55;;;4.65;;
48596;SDS011;34382;43.160;24.148;2022-10-31T04:14:40;11.50;;;6.35;;
48596;SDS011;34382;43.160;24.148;2022-10-31T04:16:14;11.25;;;5.28;;
48596;SDS011;34382;43.160;24.148;2022-10-31T04:19:19;12.00;;;4.68;;
48596;SDS011;34382;43.160;24.148;2022-10-31T04:21:01;10.55;;;4.90;;
48596;SDS011;34382;43.160;24.148;2022-10-31T04:22:35;12.43;;;5.68;;
48596;SDS011;34382;43.160;24.148;2022-10-31T04:24:07;10.95;;;6.22;;
48596;SDS011;34382;43.160;24.148;2022-10-31T04:25:39;10.70;;;4.63;;
48596;SDS011;34382;43.160;24.148;2022-10-31T04:27:11;10.82;;;4.93;;
48596;SDS011;34382;43.160;24.148;2022-10-31T04:28:43;10.65;;;4.82;;
48596;SDS011;34382;43.160;24.148;2022-10-31T04:30:18;9.65;;;4.45;;
48596;SDS011;34382;43.160;24.148;2022-10-31T04:31:50;11.32;;;4.72;;
48596;SDS011;34382;43.160;24.148;2022-10-31T04:33:22;9.27;;;4.18;;
48596;SDS011;34382;43.160;24.148;2022-10-31T04:34:54;9.77;;;4.63;;
48596;SDS011;34382;43.160;24.148;2022-10-31T04:36:26;10.80;;;5.30;;
48596;SDS011;34382;43.160;24.148;2022-10-31T04:37:58;9.68;;;5.22;;
48596;SDS011;34382;43.160;24.148;2022-10-31T04:39:30;10.20;;;4.97;;
48596;SDS011;34382;43.160;24.148;2022-10-31T04:41:02;11.95;;;4.70;;
48596;SDS011;34382;43.160;24.148;2022-10-31T04:42:34;11.25;;;4.85;;
48596;SDS011;34382;43.160;24.148;2022-10-31T04:44:06;10.27;;;4.47;;
48596;SDS011;34382;43.160;24.148;2022-10-31T04:45:38;10.13;;;4.40;;
48596;SDS011;34382;43.160;24.148;2022-10-31T04:47:10;10.35;;;5.00;;
48596;SDS011;34382;43.160;24.148;2022-10-31T04:48:43;11.05;;;4.70;;
48596;SDS011;34382;43.160;24.148;2022-10-31T04:50:15;11.52;;;4.65;;
48596;SDS011;34382;43.160;24.148;2022-10-31T04:51:47;9.55;;;4.80;;
48596;SDS011;34382;43.160;24.148;2022-10-31T04:53:19;12.80;;;5.55;;
48596;SDS011;34382;43.160;24.148;2022-10-31T04:54:51;10.75;;;5.78;;
48596;SDS011;34382;43.160;24.148;2022-10-31T04:56:23;12.48;;;5.88;;
48596;SDS011;34382;43.160;24.148;2022-10-31T04:57:55;11.68;;;5.63;;
48596;SDS011;34382;43.160;24.148;2022-10-31T04:59:27;13.40;;;5.60;;
48596;SDS011;34382;43.160;24.148;2022-10-31T05:00:59;10.85;;;5.72;;
48596;SDS011;34382;43.160;24.148;2022-10-31T05:02:31;16.38;;;7.03;;
48596;SDS011;34382;43.160;24.148;2022-10-31T05:04:03;17.15;;;7.40;;
48596;SDS011;34382;43.160;24.148;2022-10-31T05:05:38;18.70;;;8.02;;
48596;SDS011;34382;43.160;24.148;2022-10-31T05:07:10;19.65;;;8.15;;
48596;SDS011;34382;43.160;24.148;2022-10-31T05:08:42;9.65;;;5.38;;
48596;SDS011;34382;43.160;24.148;2022-10-31T05:10:16;12.38;;;6.10;;
48596;SDS011;34382;43.160;24.148;2022-10-31T05:11:49;15.57;;;6.70;;
48596;SDS011;34382;43.160;24.148;2022-10-31T05:13:21;18.20;;;8.73;;
48596;SDS011;34382;43.160;24.148;2022-10-31T05:14:53;17.73;;;7.88;;
48596;SDS011;34382;43.160;24.148;2022-10-31T05:16:26;12.80;;;6.68;;
48596;SDS011;34382;43.160;24.148;2022-10-31T05:18:00;14.13;;;7.30;;
48596;SDS011;34382;43.160;24.148;2022-10-31T05:19:32;17.33;;;9.55;;
48596;SDS011;34382;43.160;24.148;2022-10-31T05:21:04;15.70;;;8.05;;
48596;SDS011;34382;43.160;24.148;2022-10-31T05:22:37;17.45;;;8.07;;
48596;SDS011;34382;43.160;24.148;2022-10-31T05:24:13;15.27;;;8.77;;
48596;SDS011;34382;43.160;24.148;2022-10-31T05:25:45;18.48;;;9.32;;
48596;SDS011;34382;43.160;24.148;2022-10-31T05:27:17;13.18;;;6.50;;
48596;SDS011;34382;43.160;24.148;2022-10-31T05:28:49;14.43;;;6.10;;
48596;SDS011;34382;43.160;24.148;2022-10-31T05:30:26;12.85;;;6.10;;
48596;SDS011;34382;43.160;24.148;2022-10-31T05:32:00;13.85;;;6.95;;
48596;SDS011;34382;43.160;24.148;2022-10-31T05:33:32;15.27;;;7.85;;
48596;SDS011;34382;43.160;24.148;2022-10-31T05:35:05;15.25;;;8.13;;
48596;SDS011;34382;43.160;24.148;2022-10-31T05:36:39;11.70;;;6.70;;
48596;SDS011;34382;43.160;24.148;2022-10-31T05:38:12;15.07;;;7.50;;
48596;SDS011;34382;43.160;24.148;2022-10-31T05:39:44;13.75;;;7.43;;
48596;SDS011;34382;43.160;24.148;2022-10-31T05:41:16;17.67;;;7.38;;
48596;SDS011;34382;43.160;24.148;2022-10-31T05:42:50;13.63;;;7.97;;
48596;SDS011;34382;43.160;24.148;2022-10-31T05:44:23;15.90;;;7.75;;
48596;SDS011;34382;43.160;24.148;2022-10-31T05:45:56;19.00;;;7.95;;
48596;SDS011;34382;43.160;24.148;2022-10-31T05:47:28;15.32;;;7.38;;
48596;SDS011;34382;43.160;24.148;2022-10-31T05:49:00;16.55;;;7.60;;
48596;SDS011;34382;43.160;24.148;2022-10-31T05:50:33;16.88;;;7.78;;
48596;SDS011;34382;43.160;24.148;2022-10-31T05:52:05;16.27;;;8.27;;
48596;SDS011;34382;43.160;24.148;2022-10-31T05:53:37;12.80;;;7.40;;
48596;SDS011;34382;43.160;24.148;2022-10-31T05:55:10;14.30;;;7.28;;
48596;SDS011;34382;43.160;24.148;2022-10-31T05:56:42;14.85;;;7.70;;
48596;SDS011;34382;43.160;24.148;2022-10-31T05:58:14;14.70;;;7.90;;
48596;SDS011;34382;43.160;24.148;2022-10-31T05:59:47;14.35;;;7.60;;
48596;SDS011;34382;43.160;24.148;2022-10-31T06:01:25;14.50;;;8.10;;
48596;SDS011;34382;43.160;24.148;2022-10-31T06:03:04;13.82;;;7.57;;
48596;SDS011;34382;43.160;24.148;2022-10-31T06:04:38;14.65;;;7.55;;
48596;SDS011;34382;43.160;24.148;2022-10-31T06:06:10;13.30;;;7.03;;
48596;SDS011;34382;43.160;24.148;2022-10-31T06:07:42;11.43;;;6.32;;
48596;SDS011;34382;43.160;24.148;2022-10-31T06:09:15;13.65;;;6.82;;
48596;SDS011;34382;43.160;24.148;2022-10-31T06:10:47;14.95;;;6.97;;
48596;SDS011;34382;43.160;24.148;2022-10-31T06:12:19;12.95;;;7.25;;
48596;SDS011;34382;43.160;24.148;2022-10-31T06:13:51;11.98;;;6.68;;
48596;SDS011;34382;43.160;24.148;2022-10-31T06:15:23;11.30;;;6.50;;
48596;SDS011;34382;43.160;24.148;2022-10-31T06:16:56;11.13;;;6.47;;
48596;SDS011;34382;43.160;24.148;2022-10-31T06:18:28;14.75;;;6.30;;
48596;SDS011;34382;43.160;24.148;2022-10-31T06:20:00;13.55;;;6.55;;
48596;SDS011;34382;43.160;24.148;2022-10-31T06:21:35;13.88;;;6.28;;
48596;SDS011;34382;43.160;24.148;2022-10-31T06:23:08;13.38;;;6.43;;
48596;SDS011;34382;43.160;24.148;2022-10-31T06:24:40;9.95;;;5.90;;
48596;SDS011;34382;43.160;24.148;2022-10-31T06:26:15;11.07;;;6.00;;
48596;SDS011;34382;43.160;24.148;2022-10-31T06:27:48;14.00;;;6.28;;
48596;SDS011;34382;43.160;24.148;2022-10-31T06:29:20;14.52;;;6.43;;
48596;SDS011;34382;43.160;24.148;2022-10-31T06:30:52;10.70;;;5.93;;
48596;SDS011;34382;43.160;24.148;2022-10-31T06:32:25;11.32;;;6.00;;
48596;SDS011;34382;43.160;24.148;2022-10-31T06:33:57;11.73;;;6.55;;
48596;SDS011;34382;43.160;24.148;2022-10-31T06:35:29;13.25;;;6.82;;
48596;SDS011;34382;43.160;24.148;2022-10-31T06:38:35;12.77;;;6.63;;
48596;SDS011;34382;43.160;24.148;2022-10-31T06:40:07;11.50;;;6.13;;
48596;SDS011;34382;43.160;24.148;2022-10-31T06:41:40;12.65;;;6.03;;
48596;SDS011;34382;43.160;24.148;2022-10-31T06:43:13;12.75;;;6.10;;
48596;SDS011;34382;43.160;24.148;2022-10-31T06:44:46;10.48;;;5.53;;
48596;SDS011;34382;43.160;24.148;2022-10-31T06:46:18;11.75;;;5.53;;
48596;SDS011;34382;43.160;24.148;2022-10-31T06:47:52;11.50;;;5.55;;
48596;SDS011;34382;43.160;24.148;2022-10-31T06:49:45;13.02;;;5.38;;
48596;SDS011;34382;43.160;24.148;2022-10-31T06:51:17;16.00;;;5.80;;
48596;SDS011;34382;43.160;24.148;2022-10-31T06:52:50;14.80;;;5.63;;
48596;SDS011;34382;43.160;24.148;2022-10-31T06:54:23;12.70;;;6.07;;
48596;SDS011;34382;43.160;24.148;2022-10-31T06:55:56;13.30;;;5.50;;
48596;SDS011;34382;43.160;24.148;2022-10-31T06:57:28;12.32;;;5.68;;
48596;SDS011;34382;43.160;24.148;2022-10-31T06:59:00;12.73;;;5.50;;
48596;SDS011;34382;43.160;24.148;2022-10-31T07:00:33;12.95;;;5.53;;
48596;SDS011;34382;43.160;24.148;2022-10-31T07:02:07;10.43;;;5.53;;
48596;SDS011;34382;43.160;24.148;2022-10-31T07:03:41;10.63;;;4.88;;
48596;SDS011;34382;43.160;24.148;2022-10-31T07:05:13;11.02;;;5.28;;
48596;SDS011;34382;43.160;24.148;2022-10-31T07:06:45;11.13;;;4.93;;
48596;SDS011;34382;43.160;24.148;2022-10-31T07:08:22;11.85;;;5.00;;
48596;SDS011;34382;43.160;24.148;2022-10-31T07:09:54;11.82;;;4.55;;
48596;SDS011;34382;43.160;24.148;2022-10-31T07:11:27;12.27;;;4.90;;
48596;SDS011;34382;43.160;24.148;2022-10-31T07:13:00;10.38;;;4.65;;
48596;SDS011;34382;43.160;24.148;2022-10-31T07:14:35;12.65;;;5.65;;
48596;SDS011;34382;43.160;24.148;2022-10-31T07:16:07;15.68;;;5.80;;
48596;SDS011;34382;43.160;24.148;2022-10-31T09:09:12;10.60;;;3.97;;
48596;SDS011;34382;43.160;24.148;2022-10-31T09:10:44;9.18;;;3.58;;
48596;SDS011;34382;43.160;24.148;2022-10-31T09:12:17;10.63;;;3.60;;
48596;SDS011;34382;43.160;24.148;2022-10-31T09:13:49;8.68;;;3.70;;
48596;SDS011;34382;43.160;24.148;2022-10-31T09:15:21;10.00;;;3.53;;
48596;SDS011;34382;43.160;24.148;2022-10-31T09:16:53;10.13;;;4.05;;
48596;SDS011;34382;43.160;24.148;2022-10-31T09:18:26;10.15;;;4.65;;
48596;SDS011;34382;43.160;24.148;2022-10-31T09:20:03;11.32;;;4.78;;
48596;SDS011;34382;43.160;24.148;2022-10-31T09:21:36;9.68;;;3.70;;
48596;SDS011;34382;43.160;24.148;2022-10-31T09:23:21;8.38;;;3.95;;
48596;SDS011;34382;43.160;24.148;2022-10-31T09:24:54;8.73;;;3.30;;
48596;SDS011;34382;43.160;24.148;2022-10-31T09:26:26;10.32;;;3.85;;
48596;SDS011;34382;43.160;24.148;2022-10-31T09:27:59;10.93;;;3.83;;
48596;SDS011;34382;43.160;24.148;2022-10-31T09:29:32;13.75;;;5.75;;
48596;SDS011;34382;43.160;24.148;2022-10-31T09:31:05;10.05;;;3.15;;
48596;SDS011;34382;43.160;24.148;2022-10-31T09:32:37;12.27;;;3.80;;
48596;SDS011;34382;43.160;24.148;2022-10-31T09:34:10;9.82;;;3.50;;
48596;SDS011;34382;43.160;24.148;2022-10-31T09:35:42;12.82;;;3.67;;
48596;SDS011;34382;43.160;24.148;2022-10-31T09:38:47;7.43;;;3.30;;
48596;SDS011;34382;43.160;24.148;2022-10-31T09:40:19;10.17;;;3.43;;
48596;SDS011;34382;43.160;24.148;2022-10-31T09:45:28;10.40;;;4.38;;
48596;SDS011;34382;43.160;24.148;2022-10-31T09:47:07;10.95;;;3.38;;
48596;SDS011;34382;43.160;24.148;2022-10-31T09:50:56;7.97;;;3.22;;
48596;SDS011;34382;43.160;24.148;2022-10-31T09:52:32;8.30;;;3.35;;
48596;SDS011;34382;43.160;24.148;2022-10-31T09:54:13;8.93;;;3.42;;
48596;SDS011;34382;43.160;24.148;2022-10-31T09:55:48;9.15;;;3.72;;
48596;SDS011;34382;43.160;24.148;2022-10-31T09:57:25;9.35;;;3.50;;
48596;SDS011;34382;43.160;24.148;2022-10-31T09:59:01;8.52;;;3.00;;
48596;SDS011;34382;43.160;24.148;2022-10-31T10:00:34;8.15;;;2.53;;
48596;SDS011;34382;43.160;24.148;2022-10-31T10:02:24;8.27;;;3.00;;
48596;SDS011;34382;43.160;24.148;2022-10-31T10:04:16;7.97;;;2.97;;
48596;SDS011;34382;43.160;24.148;2022-10-31T10:06:18;6.78;;;2.80;;
48596;SDS011;34382;43.160;24.148;2022-10-31T10:09:50;14.15;;;3.47;;
48596;SDS011;34382;43.160;24.148;2022-10-31T10:17:31;9.48;;;3.05;;
48596;SDS011;34382;43.160;24.148;2022-10-31T10:23:04;9.25;;;3.00;;
48596;SDS011;34382;43.160;24.148;2022-10-31T10:26:40;8.35;;;3.13;;
48596;SDS011;34382;43.160;24.148;2022-10-31T10:28:23;6.88;;;2.85;;
48596;SDS011;34382;43.160;24.148;2022-10-31T10:30:01;10.35;;;3.13;;
48596;SDS011;34382;43.160;24.148;2022-10-31T10:31:37;7.03;;;2.95;;
48596;SDS011;34382;43.160;24.148;2022-10-31T10:33:35;7.38;;;2.60;;
48596;SDS011;34382;43.160;24.148;2022-10-31T10:38:41;8.18;;;3.13;;
48596;SDS011;34382;43.160;24.148;2022-10-31T10:40:30;8.15;;;3.40;;
48596;SDS011;34382;43.160;24.148;2022-10-31T10:42:07;8.30;;;3.08;;
48596;SDS011;34382;43.160;24.148;2022-10-31T10:44:01;8.07;;;3.33;;
48596;SDS011;34382;43.160;24.148;2022-10-31T10:45:33;8.97;;;2.60;;
48596;SDS011;34382;43.160;24.148;2022-10-31T10:47:25;7.75;;;3.00;;
48596;SDS011;34382;43.160;24.148;2022-10-31T10:49:17;10.05;;;3.55;;
48596;SDS011;34382;43.160;24.148;2022-10-31T10:50:50;8.48;;;3.05;;
48596;SDS011;34382;43.160;24.148;2022-10-31T10:59:33;9.23;;;3.20;;
48596;SDS011;34382;43.160;24.148;2022-10-31T11:01:12;9.18;;;2.90;;
48596;SDS011;34382;43.160;24.148;2022-10-31T11:03:05;7.45;;;2.70;;
48596;SDS011;34382;43.160;24.148;2022-10-31T11:04:38;10.05;;;3.28;;
48596;SDS011;34382;43.160;24.148;2022-10-31T11:06:33;7.75;;;3.13;;
48596;SDS011;34382;43.160;24.148;2022-10-31T11:08:04;7.03;;;3.03;;
48596;SDS011;34382;43.160;24.148;2022-10-31T11:09:37;7.20;;;2.75;;
48596;SDS011;34382;43.160;24.148;2022-10-31T11:14:43;10.10;;;3.30;;
48596;SDS011;34382;43.160;24.148;2022-10-31T11:16:28;9.88;;;3.13;;
48596;SDS011;34382;43.160;24.148;2022-10-31T11:18:00;8.75;;;3.58;;
48596;SDS011;34382;43.160;24.148;2022-10-31T11:19:33;8.35;;;2.92;;
48596;SDS011;34382;43.160;24.148;2022-10-31T11:21:05;8.45;;;3.10;;
48596;SDS011;34382;43.160;24.148;2022-10-31T11:22:47;7.50;;;2.70;;
48596;SDS011;34382;43.160;24.148;2022-10-31T11:25:59;8.30;;;3.03;;
48596;SDS011;34382;43.160;24.148;2022-10-31T11:27:33;10.13;;;3.00;;
48596;SDS011;34382;43.160;24.148;2022-10-31T11:29:16;9.32;;;3.20;;
48596;SDS011;34382;43.160;24.148;2022-10-31T11:30:54;8.52;;;3.08;;
48596;SDS011;34382;43.160;24.148;2022-10-31T11:32:28;12.25;;;3.60;;
48596;SDS011;34382;43.160;24.148;2022-10-31T11:34:02;10.18;;;3.20;;
48596;SDS011;34382;43.160;24.148;2022-10-31T11:35:38;9.95;;;4.30;;
48596;SDS011;34382;43.160;24.148;2022-10-31T11:37:15;14.45;;;6.82;;
48596;SDS011;34382;43.160;24.148;2022-10-31T11:38:49;13.63;;;6.30;;
48596;SDS011;34382;43.160;24.148;2022-10-31T11:40:24;10.32;;;5.07;;
48596;SDS011;34382;43.160;24.148;2022-10-31T11:41:59;9.85;;;4.85;;
48596;SDS011;34382;43.160;24.148;2022-10-31T11:43:39;12.90;;;5.05;;
48596;SDS011;34382;43.160;24.148;2022-10-31T11:45:18;9.98;;;3.80;;
48596;SDS011;34382;43.160;24.148;2022-10-31T11:47:03;8.20;;;3.42;;
48596;SDS011;34382;43.160;24.148;2022-10-31T11:48:37;14.13;;;8.48;;
48596;SDS011;34382;43.160;24.148;2022-10-31T11:50:10;14.73;;;9.40;;
48596;SDS011;34382;43.160;24.148;2022-10-31T11:51:46;21.80;;;14.82;;
48596;SDS011;34382;43.160;24.148;2022-10-31T11:53:29;23.20;;;16.45;;
48596;SDS011;34382;43.160;24.148;2022-10-31T11:56:42;18.10;;;9.65;;
48596;SDS011;34382;43.160;24.148;2022-10-31T11:58:24;13.75;;;8.23;;
48596;SDS011;34382;43.160;24.148;2022-10-31T11:59:59;12.65;;;5.82;;
48596;SDS011;34382;43.160;24.148;2022-10-31T12:01:33;9.63;;;4.78;;
48596;SDS011;34382;43.160;24.148;2022-10-31T12:05:04;13.00;;;6.10;;
48596;SDS011;34382;43.160;24.148;2022-10-31T12:06:40;13.88;;;5.72;;
48596;SDS011;34382;43.160;24.148;2022-10-31T12:08:14;9.88;;;4.95;;
48596;SDS011;34382;43.160;24.148;2022-10-31T12:09:46;10.80;;;4.10;;
48596;SDS011;34382;43.160;24.148;2022-10-31T12:11:23;10.57;;;3.37;;
48596;SDS011;34382;43.160;24.148;2022-10-31T12:18:33;24.10;;;16.77;;
48596;SDS011;34382;43.160;24.148;2022-10-31T12:25:39;10.98;;;3.38;;
48596;SDS011;34382;43.160;24.148;2022-10-31T12:27:23;11.32;;;4.35;;
48596;SDS011;34382;43.160;24.148;2022-10-31T12:29:12;10.27;;;4.57;;
48596;SDS011;34382;43.160;24.148;2022-10-31T12:31:03;13.57;;;7.47;;
48596;SDS011;34382;43.160;24.148;2022-10-31T12:34:47;12.20;;;6.90;;
48596;SDS011;34382;43.160;24.148;2022-10-31T12:36:37;11.18;;;5.10;;
48596;SDS011;34382;43.160;24.148;2022-10-31T12:42:04;8.30;;;2.92;;
48596;SDS011;34382;43.160;24.148;2022-10-31T12:43:49;8.88;;;2.92;;
48596;SDS011;34382;43.160;24.148;2022-10-31T12:45:51;10.40;;;5.82;;
48596;SDS011;34382;43.160;24.148;2022-10-31T12:47:36;10.38;;;4.60;;
48596;SDS011;34382;43.160;24.148;2022-10-31T12:49:25;9.80;;;3.38;;
48596;SDS011;34382;43.160;24.148;2022-10-31T13:15:23;8.15;;;3.00;;